createdAt,value
2022-08-04T00:01:45.935Z,99.40
2022-08-04T00:04:41.542Z,99.00
2022-08-04T00:07:44.449Z,98.90
2022-08-04T00:10:16.391Z,98.90
2022-08-04T00:12:47.695Z,98.80
2022-08-04T00:15:16.567Z,98.70
2022-08-04T00:17:49.569Z,98.50
2022-08-04T00:20:19.251Z,98.40
2022-08-04T00:22:48.102Z,98.60
2022-08-04T00:25:15.435Z,98.40
2022-08-04T00:27:42.086Z,98.90
2022-08-04T00:30:09.320Z,98.90
2022-08-04T00:32:36.181Z,99.60
2022-08-04T00:35:03.530Z,99.40
2022-08-04T00:37:30.682Z,99.20
2022-08-04T00:39:57.525Z,99.00
2022-08-04T00:42:37.399Z,99.00
2022-08-04T00:46:15.290Z,98.80
2022-08-04T00:49:00.885Z,98.90
2022-08-04T00:52:32.053Z,98.80
2022-08-04T00:54:54.670Z,98.70
2022-08-04T00:57:42.043Z,98.70
2022-08-04T01:00:14.374Z,98.80
2022-08-04T01:02:56.453Z,98.80
2022-08-04T01:05:52.097Z,98.60
2022-08-04T01:08:37.247Z,98.70
2022-08-04T01:11:16.079Z,98.60
2022-08-04T01:14:20.029Z,98.50
2022-08-04T01:16:53.157Z,98.70
2022-08-04T01:19:43.337Z,98.90
2022-08-04T01:22:32.366Z,98.70
2022-08-04T01:25:18.627Z,98.70
2022-08-04T01:28:06.895Z,98.60
2022-08-04T01:30:36.148Z,98.40
2022-08-04T01:33:07.954Z,98.60
2022-08-04T01:35:56.778Z,98.50
2022-08-04T01:38:30.362Z,98.60
2022-08-04T01:41:00.451Z,98.70
2022-08-04T01:43:29.414Z,98.30
2022-08-04T01:46:01.109Z,98.90
2022-08-04T01:48:29.250Z,98.80
2022-08-04T01:51:05.499Z,98.90
2022-08-04T01:53:35.017Z,98.90
2022-08-04T01:56:02.967Z,99.00
2022-08-04T01:58:32.336Z,98.90
2022-08-04T02:01:04.926Z,99.00
2022-08-04T02:04:19.868Z,99.00
2022-08-04T02:06:34.666Z,99.00
2022-08-04T02:09:16.546Z,99.00
2022-08-04T02:11:49.448Z,98.90
2022-08-04T02:14:40.832Z,98.90
2022-08-04T02:17:12.634Z,98.90
2022-08-04T02:20:03.863Z,99.00
2022-08-04T02:22:32.821Z,99.00
2022-08-04T02:25:10.313Z,99.00
2022-08-04T02:28:00.122Z,99.10
2022-08-04T02:30:37.746Z,99.00
2022-08-04T02:33:06.930Z,99.10
2022-08-04T02:35:38.467Z,99.00
2022-08-04T02:38:16.390Z,99.00
2022-08-04T02:40:43.658Z,99.10
2022-08-04T02:43:11.168Z,99.20
2022-08-04T02:45:43.394Z,99.10
2022-08-04T02:48:30.698Z,99.30
2022-08-04T02:50:59.726Z,99.30
2022-08-04T02:53:29.310Z,99.30
2022-08-04T02:55:57.466Z,99.30
2022-08-04T02:58:31.619Z,99.50
2022-08-04T03:00:58.411Z,99.40
2022-08-04T03:03:28.214Z,99.50
2022-08-04T03:06:13.214Z,99.50
2022-08-04T03:09:19.284Z,99.50
2022-08-04T03:12:11.329Z,99.60
2022-08-04T03:14:55.266Z,99.60
2022-08-04T03:17:52.367Z,99.60
2022-08-04T03:20:37.285Z,99.50
2022-08-04T03:23:24.689Z,99.70
2022-08-04T03:26:14.508Z,99.60
2022-08-04T03:29:36.717Z,99.70
2022-08-04T03:32:41.310Z,99.70
2022-08-04T03:35:35.889Z,99.90
2022-08-04T03:38:18.089Z,99.90
2022-08-04T03:42:03.084Z,99.90
2022-08-04T03:44:30.016Z,99.80
2022-08-04T03:47:07.775Z,99.90
2022-08-04T03:50:03.123Z,99.90
2022-08-04T03:53:08.604Z,99.80
2022-08-04T03:55:53.146Z,99.90
2022-08-04T03:58:38.333Z,99.60
2022-08-04T04:01:30.834Z,99.90
2022-08-04T04:04:33.208Z,99.90
2022-08-04T04:07:36.365Z,99.90
2022-08-04T04:10:26.820Z,99.80
2022-08-04T04:13:06.905Z,99.80
2022-08-04T04:16:17.202Z,99.90
2022-08-04T04:18:54.270Z,99.70
2022-08-04T04:21:27.270Z,99.80
2022-08-04T04:24:11.072Z,99.70
2022-08-04T04:26:51.471Z,99.70
2022-08-04T04:29:45.787Z,99.70
2022-08-04T04:32:52.747Z,99.70
2022-08-04T04:35:31.660Z,99.60
2022-08-04T04:38:16.907Z,99.90
2022-08-04T04:41:15.378Z,99.60
2022-08-04T04:44:35.811Z,99.60
2022-08-04T04:47:43.271Z,99.60
2022-08-04T04:50:41.729Z,99.70
2022-08-04T04:53:33.157Z,99.50
2022-08-04T04:56:27.279Z,99.50
2022-08-04T04:58:56.683Z,99.50
2022-08-04T05:01:51.053Z,99.30
2022-08-04T05:04:29.527Z,99.40
2022-08-04T05:07:24.197Z,99.50
2022-08-04T05:10:03.311Z,99.40
2022-08-04T05:14:36.959Z,99.20
2022-08-04T05:15:45.404Z,99.10
2022-08-04T05:18:19.208Z,99.00
2022-08-04T05:20:52.427Z,99.00
2022-08-04T05:23:28.850Z,98.90
2022-08-04T05:26:10.030Z,98.70
2022-08-04T05:28:41.396Z,98.80
2022-08-04T05:31:20.294Z,99.00
2022-08-04T05:33:57.514Z,98.80
2022-08-04T05:36:40.877Z,98.80
2022-08-04T05:39:13.306Z,98.60
2022-08-04T05:41:45.252Z,98.60
2022-08-04T05:44:15.147Z,98.20
2022-08-04T05:46:44.212Z,97.90
2022-08-04T05:49:16.527Z,97.70
2022-08-04T05:51:48.808Z,97.30
2022-08-04T05:54:18.403Z,97.30
2022-08-04T05:56:46.087Z,97.10
2022-08-04T05:59:13.505Z,97.00
2022-08-04T06:01:56.106Z,96.90
2022-08-04T06:04:30.982Z,96.70
2022-08-04T06:06:57.653Z,96.70
2022-08-04T06:09:24.594Z,96.50
2022-08-04T06:12:00.883Z,96.30
2022-08-04T06:14:36.976Z,96.20
2022-08-04T06:17:06.011Z,96.00
2022-08-04T06:20:00.175Z,96.00
2022-08-04T06:22:43.032Z,96.10
2022-08-04T06:25:12.112Z,96.10
2022-08-04T06:27:40.310Z,96.20
2022-08-04T06:30:10.367Z,96.20
2022-08-04T06:32:47.308Z,96.00
2022-08-04T06:35:16.704Z,95.90
2022-08-04T06:37:44.553Z,95.90
2022-08-04T06:40:31.258Z,95.70
2022-08-04T06:43:01.935Z,95.70
2022-08-04T06:45:29.389Z,95.60
2022-08-04T06:47:56.886Z,95.60
2022-08-04T06:51:32.109Z,95.50
2022-08-04T06:53:11.748Z,95.50
2022-08-04T06:55:40.002Z,95.40
2022-08-04T06:58:07.626Z,95.20
2022-08-04T07:00:36.393Z,95.20
2022-08-04T07:03:04.383Z,94.80
2022-08-04T07:05:31.958Z,94.90
2022-08-04T07:07:59.381Z,95.10
2022-08-04T07:10:30.712Z,94.90
2022-08-04T07:13:01.609Z,94.70
2022-08-04T07:15:28.974Z,94.40
2022-08-04T07:18:01.814Z,94.80
2022-08-04T07:20:34.386Z,94.30
2022-08-04T07:23:06.923Z,94.20
2022-08-04T07:25:59.569Z,94.00
2022-08-04T07:28:26.466Z,93.90
2022-08-04T07:30:54.622Z,93.70
2022-08-04T07:33:21.871Z,93.50
2022-08-04T07:36:09.412Z,93.50
2022-08-04T07:38:48.409Z,93.50
2022-08-04T07:41:39.083Z,93.30
2022-08-04T07:44:06.763Z,93.40
2022-08-04T07:46:33.638Z,93.20
2022-08-04T07:49:01.206Z,93.00
2022-08-04T07:51:30.395Z,93.00
2022-08-04T07:53:58.069Z,92.90
2022-08-04T07:56:26.641Z,92.90
2022-08-04T07:58:53.926Z,92.70
2022-08-04T08:01:21.462Z,92.50
2022-08-04T08:03:48.983Z,92.40
2022-08-04T08:06:17.601Z,92.50
2022-08-04T08:09:00.946Z,92.20
2022-08-04T08:12:35.502Z,91.90
2022-08-04T08:14:28.187Z,91.60
2022-08-04T08:16:54.937Z,91.80
2022-08-04T08:19:21.795Z,91.70
2022-08-04T08:21:59.325Z,91.50
2022-08-04T08:24:28.327Z,91.40
2022-08-04T08:26:56.777Z,90.90
2022-08-04T08:29:24.302Z,90.40
2022-08-04T08:31:58.388Z,90.10
2022-08-04T08:34:30.949Z,89.60
2022-08-04T08:37:33.726Z,89.10
2022-08-04T08:48:04.949Z,86.60
2022-08-04T08:50:36.296Z,85.90
2022-08-04T08:53:25.168Z,86.60
2022-08-04T08:56:12.844Z,86.70
2022-08-04T08:58:57.313Z,86.70
2022-08-04T09:01:45.833Z,86.80
2022-08-04T09:04:47.664Z,85.10
2022-08-04T09:07:47.730Z,84.90
2022-08-04T09:10:33.100Z,84.90
2022-08-04T09:13:08.332Z,84.80
2022-08-04T09:16:01.860Z,83.40
2022-08-04T09:18:37.660Z,83.00
2022-08-04T09:21:25.689Z,83.00
2022-08-04T09:24:36.322Z,82.20
2022-08-04T09:27:05.375Z,82.30
2022-08-04T09:30:08.492Z,81.20
2022-08-04T09:32:47.154Z,80.80
2022-08-04T09:35:34.577Z,79.20
2022-08-04T09:38:11.774Z,79.10
2022-08-04T09:40:58.949Z,79.20
2022-08-04T09:44:42.753Z,79.00
2022-08-04T09:46:52.074Z,78.20
2022-08-04T09:49:29.695Z,76.80
2022-08-04T09:52:08.478Z,76.00
2022-08-04T09:54:52.959Z,75.50
2022-08-04T09:57:31.587Z,74.70
2022-08-04T10:00:09.165Z,74.90
2022-08-04T10:02:42.580Z,74.80
2022-08-04T10:05:16.238Z,74.60
2022-08-04T10:08:15.534Z,74.80
2022-08-04T10:11:12.440Z,75.50
2022-08-04T10:13:51.900Z,74.70
2022-08-04T10:16:35.844Z,75.20
2022-08-04T10:19:24.089Z,75.10
2022-08-04T10:22:44.758Z,75.40
2022-08-04T10:26:02.647Z,75.10
2022-08-04T10:28:25.005Z,75.80
2022-08-04T10:30:59.179Z,75.10
2022-08-04T10:33:31.193Z,74.70
2022-08-04T10:36:04.299Z,75.30
2022-08-04T10:38:40.951Z,75.20
2022-08-04T10:41:52.883Z,75.40
2022-08-04T10:44:42.287Z,75.60
2022-08-04T10:47:20.144Z,75.70
2022-08-04T10:49:54.666Z,75.00
2022-08-04T10:52:42.410Z,74.30
2022-08-04T10:55:19.898Z,73.90
2022-08-04T10:57:52.618Z,73.90
2022-08-04T11:00:25.586Z,73.30
2022-08-04T11:02:55.519Z,71.70
2022-08-04T11:05:43.826Z,71.30
2022-08-04T11:08:35.559Z,70.60
2022-08-04T11:11:24.350Z,70.00
2022-08-04T11:14:04.134Z,69.50
2022-08-04T11:16:54.702Z,68.20
2022-08-04T11:19:45.026Z,66.90
2022-08-04T11:22:25.346Z,67.80
2022-08-04T11:25:21.771Z,67.60
2022-08-04T11:28:07.751Z,67.80
2022-08-04T11:30:45.623Z,67.80
2022-08-04T11:33:15.258Z,66.90
2022-08-04T11:35:50.583Z,66.10
2022-08-04T11:38:41.664Z,66.80
2022-08-04T11:41:15.926Z,65.70
2022-08-04T11:44:00.692Z,65.00
2022-08-04T11:46:55.907Z,64.00
2022-08-04T11:49:56.980Z,64.40
2022-08-04T11:52:28.081Z,64.50
2022-08-04T11:54:55.793Z,64.30
2022-08-04T11:57:35.053Z,64.30
2022-08-04T12:00:10.202Z,64.20
2022-08-04T12:02:51.980Z,63.50
2022-08-04T12:05:35.752Z,62.10
2022-08-04T12:08:40.892Z,61.90
2022-08-04T12:11:26.610Z,60.70
2022-08-04T12:14:21.107Z,59.60
2022-08-04T12:17:03.462Z,59.30
2022-08-04T12:20:05.117Z,59.00
2022-08-04T12:22:47.286Z,58.90
2022-08-04T12:25:20.811Z,59.50
2022-08-04T12:27:57.900Z,59.70
2022-08-04T12:30:59.070Z,59.70
2022-08-04T12:33:22.347Z,59.30
2022-08-04T12:36:05.263Z,58.70
2022-08-04T12:38:49.200Z,59.10
2022-08-04T12:41:23.092Z,58.70
2022-08-04T12:43:50.584Z,58.20
2022-08-04T12:46:25.898Z,58.70
2022-08-04T12:48:58.881Z,58.80
2022-08-04T12:51:30.940Z,59.20
2022-08-04T12:54:28.704Z,58.20
2022-08-04T12:56:58.818Z,58.20
2022-08-04T12:59:25.805Z,57.20
2022-08-04T13:02:09.029Z,57.80
2022-08-04T13:04:42.631Z,57.00
2022-08-04T13:07:25.293Z,57.80
2022-08-04T13:09:53.364Z,58.20
2022-08-04T13:12:32.528Z,57.50
2022-08-04T13:15:10.647Z,57.10
2022-08-04T13:17:59.880Z,57.30
2022-08-04T13:20:38.569Z,57.80
2022-08-04T13:23:09.231Z,58.00
2022-08-04T13:26:45.049Z,58.10
2022-08-04T13:28:34.515Z,58.50
2022-08-04T13:31:05.193Z,58.50
2022-08-04T13:33:38.710Z,58.30
2022-08-04T13:36:07.373Z,58.10
2022-08-04T13:38:36.523Z,57.90
2022-08-04T13:41:05.642Z,57.70
2022-08-04T13:44:18.949Z,56.90
2022-08-04T13:46:40.455Z,58.30
2022-08-04T13:49:38.049Z,58.40
2022-08-04T13:52:10.960Z,58.50
2022-08-04T13:54:43.560Z,58.30
2022-08-04T13:57:19.299Z,59.20
2022-08-04T13:59:51.725Z,57.50
2022-08-04T14:02:58.489Z,57.40
2022-08-04T14:05:31.375Z,57.90
2022-08-04T14:08:15.197Z,57.40
2022-08-04T14:10:42.053Z,57.10
2022-08-04T14:13:08.809Z,57.60
2022-08-04T14:16:02.046Z,57.50
2022-08-04T14:18:29.740Z,57.40
2022-08-04T14:21:05.465Z,57.60
2022-08-04T14:23:47.426Z,56.20
2022-08-04T14:26:21.431Z,56.70
2022-08-04T14:29:26.976Z,56.90
2022-08-04T14:32:01.985Z,55.80
2022-08-04T14:34:30.375Z,55.90
2022-08-04T14:37:16.335Z,56.20
2022-08-04T14:40:07.922Z,56.00
2022-08-04T14:42:43.745Z,55.60
2022-08-04T14:45:10.954Z,56.00
2022-08-04T14:47:52.882Z,56.50
2022-08-04T14:50:20.769Z,57.10
2022-08-04T14:52:47.487Z,60.80
2022-08-04T14:55:23.312Z,63.80
2022-08-04T14:58:36.285Z,65.80
2022-08-04T15:00:38.060Z,68.50
2022-08-04T15:03:09.115Z,71.50
2022-08-04T15:06:02.095Z,74.40
2022-08-04T15:08:31.455Z,76.70
2022-08-04T15:11:03.233Z,78.50
2022-08-04T15:13:34.858Z,80.90
2022-08-04T15:16:08.166Z,82.10
2022-08-04T15:18:39.055Z,82.20
2022-08-04T15:21:06.943Z,82.20
2022-08-04T15:23:38.831Z,83.20
2022-08-04T15:26:09.757Z,83.50
2022-08-04T15:28:38.330Z,83.50
2022-08-04T15:32:04.376Z,83.60
2022-08-04T15:33:58.022Z,82.80
2022-08-04T15:36:37.854Z,82.60
2022-08-04T15:39:38.006Z,83.20
2022-08-04T15:42:32.242Z,83.30
2022-08-04T15:45:04.217Z,83.50
2022-08-04T15:47:31.325Z,83.40
2022-08-04T15:50:12.522Z,83.90
2022-08-04T15:53:01.009Z,84.90
2022-08-04T15:55:41.283Z,85.30
2022-08-04T15:58:10.573Z,86.00
2022-08-04T16:00:54.117Z,87.00
2022-08-04T16:03:54.303Z,90.20
2022-08-04T16:06:22.532Z,91.40
2022-08-04T16:08:52.553Z,91.10
2022-08-04T16:11:31.848Z,91.40
2022-08-04T16:13:59.031Z,92.50
2022-08-04T16:16:31.699Z,92.90
2022-08-04T16:19:05.514Z,92.60
2022-08-04T16:21:35.426Z,93.20
2022-08-04T16:24:21.481Z,93.90
2022-08-04T16:26:56.430Z,93.80
2022-08-04T16:29:23.475Z,93.70
2022-08-04T16:32:05.534Z,93.70
2022-08-04T16:34:48.184Z,93.40
2022-08-04T16:37:19.187Z,93.40
2022-08-04T16:39:51.175Z,94.20
2022-08-04T16:42:30.620Z,95.10
2022-08-04T16:45:11.311Z,95.20
2022-08-04T16:47:49.924Z,95.80
2022-08-04T16:50:19.148Z,96.10
2022-08-04T16:52:52.030Z,95.90
2022-08-04T16:55:20.451Z,95.50
2022-08-04T16:57:48.147Z,95.40
2022-08-04T17:00:15.275Z,95.50
2022-08-04T17:02:43.475Z,94.90
2022-08-04T17:05:38.385Z,95.00
2022-08-04T17:10:56.833Z,95.60
2022-08-04T17:14:02.119Z,95.70
2022-08-04T17:16:23.765Z,95.30
2022-08-04T17:18:53.215Z,95.80
2022-08-04T17:21:32.415Z,95.70
2022-08-04T17:24:13.212Z,95.90
2022-08-04T17:26:54.009Z,95.50
2022-08-04T17:29:43.785Z,95.60
2022-08-04T17:32:16.422Z,94.80
2022-08-04T17:34:47.291Z,95.00
2022-08-04T17:40:11.466Z,94.40
2022-08-04T17:42:39.795Z,94.60
2022-08-04T17:47:55.804Z,95.80
2022-08-04T17:50:27.286Z,95.90
2022-08-04T17:53:11.688Z,96.30
2022-08-04T17:55:50.281Z,96.70
2022-08-04T17:58:20.896Z,95.90
2022-08-04T18:01:25.142Z,95.60
2022-08-04T18:03:53.662Z,96.20
2022-08-04T18:06:23.327Z,96.00
2022-08-04T18:08:57.978Z,96.20
2022-08-04T18:11:29.558Z,96.20
2022-08-04T18:14:08.550Z,96.00
2022-08-04T18:16:46.016Z,96.30
2022-08-04T18:19:19.013Z,96.00
2022-08-04T18:22:00.287Z,95.80
2022-08-04T18:24:34.100Z,95.70
2022-08-04T18:27:17.701Z,95.50
2022-08-04T18:30:14.946Z,96.30
2022-08-04T18:32:33.609Z,96.10
2022-08-04T18:38:06.716Z,95.90
2022-08-04T18:40:52.343Z,95.70
2022-08-04T18:43:28.393Z,95.40
2022-08-04T18:45:57.985Z,95.70
2022-08-04T18:48:36.302Z,95.50
2022-08-04T18:51:10.506Z,96.10
2022-08-04T18:53:55.144Z,95.90
2022-08-04T18:56:29.659Z,95.80
2022-08-04T18:59:03.706Z,95.90
2022-08-04T19:02:12.718Z,95.60
2022-08-04T19:04:32.760Z,95.90
2022-08-04T19:07:29.713Z,96.20
2022-08-04T19:09:58.226Z,96.70
2022-08-04T19:12:28.162Z,96.40
2022-08-04T19:14:58.378Z,95.70
2022-08-04T19:17:55.041Z,96.30
2022-08-04T19:20:15.762Z,96.60
2022-08-04T19:24:10.859Z,96.70
2022-08-04T19:25:59.959Z,96.90
2022-08-04T19:28:28.054Z,96.90
2022-08-04T19:30:57.997Z,96.80
2022-08-04T19:33:25.451Z,96.80
2022-08-04T19:35:52.922Z,96.50
2022-08-04T19:38:20.661Z,97.10
2022-08-04T19:40:50.552Z,96.90
2022-08-04T19:43:20.834Z,96.70
2022-08-04T19:45:50.588Z,96.60
2022-08-04T19:48:21.615Z,96.30
2022-08-04T19:50:49.303Z,96.70
2022-08-04T19:53:18.858Z,96.70
2022-08-04T19:58:34.271Z,96.40
2022-08-04T20:01:00.920Z,96.50
2022-08-04T20:04:08.915Z,96.50
2022-08-04T20:06:14.371Z,96.90
2022-08-04T20:08:48.003Z,96.70
2022-08-04T20:11:16.332Z,96.60
2022-08-04T20:13:43.907Z,96.80
2022-08-04T20:16:29.697Z,97.10
2022-08-04T20:19:02.821Z,96.90
2022-08-04T20:21:54.146Z,97.10
2022-08-04T20:27:08.784Z,96.90
2022-08-04T20:29:40.125Z,96.70
2022-08-04T20:32:09.596Z,96.90
2022-08-04T20:34:36.937Z,97.10
2022-08-04T20:37:03.822Z,96.80
2022-08-04T20:39:30.856Z,96.90
2022-08-04T20:41:57.833Z,97.10
2022-08-04T20:44:24.611Z,97.50
2022-08-04T20:46:51.287Z,97.90
2022-08-04T20:49:17.987Z,98.50
2022-08-04T20:51:44.732Z,99.00
2022-08-04T20:54:16.013Z,99.20
2022-08-04T20:56:50.761Z,99.20
2022-08-04T20:59:18.559Z,99.10
2022-08-04T21:01:48.868Z,99.20
2022-08-04T21:04:31.314Z,99.40
2022-08-04T21:07:03.599Z,99.50
2022-08-04T21:09:37.814Z,99.90
2022-08-04T21:12:10.642Z,99.80
2022-08-04T21:14:53.732Z,99.90
2022-08-04T21:17:21.177Z,99.90
2022-08-04T21:20:08.262Z,99.90
2022-08-04T21:22:39.873Z,99.90
2022-08-04T21:25:08.133Z,99.90
2022-08-04T21:27:43.394Z,99.90
2022-08-04T21:30:26.171Z,99.90
2022-08-04T21:32:55.115Z,99.90
2022-08-04T21:35:36.838Z,99.90
2022-08-04T21:38:17.106Z,99.90
2022-08-04T21:40:53.356Z,99.90
2022-08-04T21:43:23.763Z,99.90
2022-08-04T21:45:55.111Z,99.90
2022-08-04T21:48:23.158Z,99.90
2022-08-04T21:50:54.232Z,99.90
2022-08-04T21:53:21.475Z,99.90
2022-08-04T21:56:06.868Z,99.90
2022-08-04T21:58:34.867Z,99.90
2022-08-04T22:01:12.635Z,99.90
2022-08-04T22:03:52.968Z,99.90
2022-08-04T22:06:28.550Z,99.90
2022-08-04T22:08:56.771Z,99.90
2022-08-04T22:11:26.064Z,99.90
2022-08-04T22:16:41.560Z,99.90
2022-08-04T22:19:08.803Z,99.90
2022-08-04T22:21:39.329Z,99.90
2022-08-04T22:24:13.873Z,99.90
2022-08-04T22:26:41.063Z,99.90
2022-08-04T22:29:14.363Z,99.90
2022-08-04T22:31:55.933Z,99.90
2022-08-04T22:34:24.698Z,99.90
2022-08-04T22:36:51.388Z,99.90
2022-08-04T22:39:23.288Z,99.90
2022-08-04T22:42:03.270Z,99.90
2022-08-04T22:44:32.333Z,99.90
2022-08-04T22:47:00.016Z,99.90
2022-08-04T22:49:31.489Z,99.90
2022-08-04T22:51:58.849Z,99.90
2022-08-04T22:54:26.022Z,99.90
2022-08-04T22:56:55.390Z,99.90
2022-08-04T22:59:23.840Z,99.90
2022-08-04T23:01:59.284Z,99.90
2022-08-04T23:04:29.506Z,99.90
2022-08-04T23:06:56.219Z,99.90
2022-08-04T23:09:27.000Z,99.90
2022-08-04T23:12:24.269Z,99.90
2022-08-04T23:14:53.246Z,99.90
2022-08-04T23:17:21.857Z,99.90
2022-08-04T23:19:58.031Z,99.90
2022-08-04T23:22:42.048Z,99.90
2022-08-04T23:25:15.453Z,99.90
2022-08-04T23:27:50.869Z,99.90
2022-08-04T23:30:21.850Z,99.90
2022-08-04T23:32:53.076Z,99.90
2022-08-04T23:35:22.172Z,99.90
2022-08-04T23:37:56.574Z,99.90
2022-08-04T23:40:32.722Z,99.90
2022-08-04T23:43:00.588Z,99.90
2022-08-04T23:46:06.930Z,99.90
2022-08-04T23:48:20.883Z,99.90
2022-08-04T23:50:47.824Z,99.90
2022-08-04T23:53:18.608Z,99.90
2022-08-04T23:55:49.484Z,99.90
2022-08-04T23:58:18.661Z,99.90
